Time;durP1;ratioP1;P1;durP2;ratioP2;P2;SDS_P1;SDS_P2;PMS_P1;PMS_P2;Temp;Humidity;BMP_temperature;BMP_pressure;BME280_temperature;BME280_humidity;BME280_pressure;Samples;Min_cycle;Max_cycle;Signal;HPM_P1;HPM_P2
2023/12/03 00:00:40;;;;;;;8.82;5.65;;;-4.60;60.30;;;;;;4945990;28;46002;-70
2023/12/03 00:03:07;;;;;;;8.05;4.85;;;-4.70;60.00;;;;;;4948628;28;46418;-72
2023/12/03 00:05:35;;;;;;;7.53;4.50;;;-4.80;60.00;;;;;;4947531;28;46725;-72
2023/12/03 00:08:01;;;;;;;6.55;4.15;;;-4.90;60.00;;;;;;4946820;28;46549;-72
2023/12/03 00:10:27;;;;;;;7.32;4.13;;;-5.00;60.00;;;;;;4951285;28;46476;-72
2023/12/03 00:12:52;;;;;;;7.00;4.60;;;-5.20;60.00;;;;;;4950005;28;46507;-71
2023/12/03 00:15:18;;;;;;;8.83;4.57;;;-5.30;60.00;;;;;;4947914;28;46488;-71
2023/12/03 00:17:44;;;;;;;10.47;5.07;;;-5.40;60.20;;;;;;4947988;28;46090;-69
2023/12/03 00:20:10;;;;;;;10.20;5.70;;;-5.40;60.10;;;;;;4949334;28;46108;-71
2023/12/03 00:22:35;;;;;;;11.02;4.97;;;-5.20;59.90;;;;;;4947772;28;46797;-71
2023/12/03 00:25:01;;;;;;;12.90;6.70;;;-4.90;59.30;;;;;;4947728;28;46465;-71
2023/12/03 00:27:26;;;;;;;12.47;6.80;;;-4.70;58.60;;;;;;4947920;28;46685;-71
2023/12/03 00:29:52;;;;;;;14.33;7.53;;;-4.50;58.00;;;;;;4948487;28;46737;-71
2023/12/03 00:32:18;;;;;;;11.90;6.83;;;-4.30;57.30;;;;;;4948843;28;47550;-69
2023/12/03 00:34:43;;;;;;;14.30;6.47;;;-4.20;56.90;;;;;;4946158;28;46470;-70
2023/12/03 00:37:09;;;;;;;11.67;7.23;;;-4.10;56.60;;;;;;4946853;28;46664;-72
2023/12/03 00:39:34;;;;;;;13.40;6.13;;;-4.00;56.50;;;;;;4946931;28;46436;-72
2023/12/03 00:42:00;;;;;;;9.40;6.00;;;-4.00;56.50;;;;;;4946991;28;46164;-72
2023/12/03 00:44:25;;;;;;;11.00;5.67;;;-4.30;56.90;;;;;;4948166;28;46457;-71
2023/12/03 00:46:51;;;;;;;9.53;6.03;;;-4.40;57.60;;;;;;4944896;28;46519;-71
2023/12/03 00:49:17;;;;;;;9.10;5.70;;;-4.40;57.60;;;;;;4946080;28;46425;-69
2023/12/03 00:51:42;;;;;;;12.70;5.90;;;-4.30;57.50;;;;;;4946208;28;46405;-70
2023/12/03 00:54:08;;;;;;;12.10;6.80;;;-4.20;57.10;;;;;;4946476;28;46772;-70
2023/12/03 00:56:33;;;;;;;12.70;7.23;;;-4.10;56.50;;;;;;4946104;28;46607;-72
2023/12/03 00:58:59;;;;;;;15.53;7.43;;;-4.00;55.90;;;;;;4946682;28;46431;-73
2023/12/03 01:01:25;;;;;;;11.23;6.60;;;-3.90;55.20;;;;;;4943899;28;46451;-71
2023/12/03 01:03:50;;;;;;;11.80;7.00;;;-3.80;54.90;;;;;;4947066;28;46502;-72
2023/12/03 01:06:16;;;;;;;13.53;6.57;;;-3.70;54.60;;;;;;4947222;28;46729;-69
2023/12/03 01:08:42;;;;;;;11.53;6.53;;;-3.60;54.50;;;;;;4947582;28;46962;-71
2023/12/03 01:11:07;;;;;;;10.67;6.37;;;-3.50;54.30;;;;;;4947922;28;47460;-71
2023/12/03 01:13:33;;;;;;;12.80;6.77;;;-3.50;54.00;;;;;;4948195;28;46410;-71
2023/12/03 01:15:58;;;;;;;11.23;5.80;;;-3.40;54.00;;;;;;4946007;28;45849;-73
2023/12/03 01:18:24;;;;;;;12.20;7.03;;;-3.30;54.20;;;;;;4947046;28;46427;-72
2023/12/03 01:20:50;;;;;;;9.20;6.00;;;-3.30;54.50;;;;;;4944870;28;46434;-69
2023/12/03 01:23:15;;;;;;;9.67;5.87;;;-3.30;54.80;;;;;;4945953;28;46403;-71
2023/12/03 01:25:41;;;;;;;9.60;6.00;;;-3.30;55.10;;;;;;4945270;28;46403;-70
2023/12/03 01:28:07;;;;;;;11.83;5.50;;;-3.40;55.30;;;;;;4945794;28;46678;-71
2023/12/03 01:30:32;;;;;;;10.97;5.17;;;-3.50;55.60;;;;;;4945194;28;46374;-71
2023/12/03 01:32:58;;;;;;;10.33;6.37;;;-3.70;56.10;;;;;;4949425;28;46673;-71
2023/12/03 01:35:23;;;;;;;8.77;5.63;;;-3.80;56.80;;;;;;4946184;28;46484;-72
2023/12/03 01:37:49;;;;;;;10.37;5.77;;;-4.10;57.30;;;;;;4943886;28;46438;-70
2023/12/03 01:40:14;;;;;;;9.20;5.50;;;-4.30;57.90;;;;;;4946235;28;46674;-71
2023/12/03 01:42:40;;;;;;;8.93;6.00;;;-4.40;58.40;;;;;;4947172;28;46492;-71
2023/12/03 01:45:06;;;;;;;11.00;6.20;;;-4.60;58.80;;;;;;4949286;28;46726;-71
2023/12/03 01:47:33;;;;;;;8.02;4.88;;;-4.70;59.00;;;;;;4947043;28;46953;-69
2023/12/03 01:50:06;;;;;;;10.70;6.60;;;-4.80;59.00;;;;;;4947294;28;46762;-73
2023/12/03 01:52:33;;;;;;;9.77;5.80;;;-4.70;60.10;;;;;;4949168;28;46181;-71
2023/12/03 01:55:00;;;;;;;8.32;5.07;;;-4.70;58.70;;;;;;4949953;28;46509;-72
2023/12/03 01:57:26;;;;;;;7.20;4.80;;;-4.70;58.50;;;;;;4951184;28;46358;-71
2023/12/03 01:59:52;;;;;;;10.63;5.68;;;-4.70;58.20;;;;;;4949917;28;46961;-73
2023/12/03 02:02:17;;;;;;;7.93;4.80;;;-4.60;58.10;;;;;;4950840;28;46573;-72
2023/12/03 02:04:43;;;;;;;8.40;5.90;;;-4.60;57.70;;;;;;4951650;28;45907;-71
2023/12/03 02:07:08;;;;;;;10.10;5.50;;;-4.60;57.30;;;;;;4950336;28;46322;-71
2023/12/03 02:09:34;;;;;;;10.30;5.97;;;-4.60;57.50;;;;;;4948120;28;46958;-71
2023/12/03 02:12:00;;;;;;;9.85;5.45;;;-4.60;57.20;;;;;;4950182;28;46485;-73
2023/12/03 02:14:26;;;;;;;8.77;5.90;;;-4.50;57.10;;;;;;4952944;28;45907;-72
2023/12/03 02:16:51;;;;;;;11.87;6.53;;;-4.50;56.80;;;;;;4950584;28;46434;-70
2023/12/03 02:19:17;;;;;;;12.50;6.20;;;-4.60;56.60;;;;;;4947390;28;46428;-71
2023/12/03 02:21:43;;;;;;;11.47;6.33;;;-4.60;56.70;;;;;;4948233;28;46452;-71
2023/12/03 02:24:11;;;;;;;11.87;6.50;;;-4.60;56.90;;;;;;4948419;28;45929;-72
2023/12/03 02:26:37;;;;;;;10.45;6.57;;;-4.60;56.90;;;;;;4949997;28;46148;-71
2023/12/03 02:29:02;;;;;;;11.10;6.87;;;-4.60;56.90;;;;;;4948273;28;46008;-71
2023/12/03 02:31:30;;;;;;;10.53;6.13;;;-4.50;56.50;;;;;;4948293;28;46482;-72
2023/12/03 02:34:12;;;;;;;11.27;6.20;;;-4.50;56.20;;;;;;4950291;28;46812;-71
2023/12/03 02:36:38;;;;;;;13.63;6.65;;;-4.60;56.20;;;;;;4946523;28;46431;-72
2023/12/03 02:39:05;;;;;;;9.60;6.60;;;-4.60;56.50;;;;;;4949489;28;46012;-71
2023/12/03 02:41:31;;;;;;;12.38;7.25;;;-4.60;56.50;;;;;;4948872;28;46488;-71
2023/12/03 02:43:57;;;;;;;11.52;6.10;;;-4.70;56.70;;;;;;4949487;28;46410;-71
2023/12/03 02:46:23;;;;;;;11.90;6.00;;;-4.80;56.70;;;;;;4949865;28;47765;-72
2023/12/03 02:48:49;;;;;;;13.20;7.25;;;-4.90;57.00;;;;;;4950075;28;46572;-71
2023/12/03 02:51:14;;;;;;;9.00;5.83;;;-5.00;56.90;;;;;;4950181;28;46692;-71
2023/12/03 02:53:40;;;;;;;11.60;7.37;;;-5.10;57.20;;;;;;4951426;28;46431;-72
2023/12/03 02:56:06;;;;;;;9.87;6.50;;;-5.30;57.30;;;;;;4950961;28;46651;-70
2023/12/03 02:58:33;;;;;;;11.10;6.70;;;-5.40;57.60;;;;;;4947609;28;47159;-71
2023/12/03 03:00:58;;;;;;;12.10;6.50;;;-5.60;57.90;;;;;;4949857;28;46354;-71
2023/12/03 03:03:24;;;;;;;14.23;7.10;;;-5.70;58.20;;;;;;4948148;28;45854;-72
2023/12/03 03:05:49;;;;;;;10.63;6.10;;;-5.80;58.30;;;;;;4947773;28;46588;-71
2023/12/03 03:08:15;;;;;;;14.83;7.00;;;-5.80;58.20;;;;;;4947748;28;46597;-71
2023/12/03 03:10:41;;;;;;;16.90;7.90;;;-5.70;58.00;;;;;;4946516;28;46509;-71
2023/12/03 03:13:08;;;;;;;15.10;7.50;;;-5.70;57.70;;;;;;4949058;28;46421;-72
2023/12/03 03:15:34;;;;;;;17.17;7.53;;;-5.60;57.40;;;;;;4949672;28;46845;-71
2023/12/03 03:17:59;;;;;;;11.40;6.40;;;-5.60;56.80;;;;;;4948494;28;47184;-71
2023/12/03 03:20:25;;;;;;;12.87;7.10;;;-5.50;56.60;;;;;;4946142;28;46418;-72
2023/12/03 03:22:51;;;;;;;14.33;7.00;;;-5.50;56.10;;;;;;4948796;28;46433;-71
2023/12/03 03:25:17;;;;;;;9.43;6.50;;;-5.50;55.60;;;;;;4944724;28;46497;-70
2023/12/03 03:27:43;;;;;;;11.20;6.47;;;-5.40;55.40;;;;;;4948128;28;47051;-69
2023/12/03 03:30:09;;;;;;;10.93;6.50;;;-5.30;55.00;;;;;;4946725;28;46652;-70
2023/12/03 03:32:34;;;;;;;12.88;7.25;;;-5.20;54.60;;;;;;4948875;28;46777;-71
2023/12/03 03:35:00;;;;;;;12.10;6.90;;;-5.10;54.30;;;;;;4948567;28;46475;-71
2023/12/03 03:37:26;;;;;;;12.23;6.93;;;-5.00;54.10;;;;;;4947886;28;46241;-73
2023/12/03 03:39:51;;;;;;;12.33;7.40;;;-5.00;53.90;;;;;;4946394;28;46513;-71
2023/12/03 03:42:17;;;;;;;15.67;7.20;;;-5.00;53.80;;;;;;4949088;28;46479;-69
2023/12/03 03:44:43;;;;;;;12.60;6.83;;;-5.00;53.70;;;;;;4948209;28;46603;-72
2023/12/03 03:47:11;;;;;;;12.30;6.97;;;-4.90;53.70;;;;;;4945384;28;46379;-72
2023/12/03 03:49:37;;;;;;;12.38;6.88;;;-4.90;53.60;;;;;;4948493;28;46314;-72
2023/12/03 03:52:03;;;;;;;11.47;7.07;;;-4.80;53.50;;;;;;4947493;28;46411;-71
2023/12/03 03:54:28;;;;;;;14.10;7.60;;;-4.70;53.50;;;;;;4949428;28;46436;-70
2023/12/03 03:56:54;;;;;;;12.23;6.70;;;-4.70;53.40;;;;;;4948732;28;47401;-73
2023/12/03 03:59:19;;;;;;;12.67;7.40;;;-4.80;53.40;;;;;;4953670;28;46308;-70
2023/12/03 04:01:45;;;;;;;11.97;6.67;;;-5.00;53.70;;;;;;4950176;28;46396;-72
2023/12/03 04:04:11;;;;;;;14.50;7.43;;;-5.00;53.80;;;;;;4949050;28;46851;-72
2023/12/03 04:06:42;;;;;;;11.48;6.68;;;-5.10;54.20;;;;;;4948114;28;46723;-71
2023/12/03 04:09:08;;;;;;;13.75;7.43;;;-5.20;54.30;;;;;;4946431;28;46692;-71
2023/12/03 04:11:44;;;;;;;12.10;7.10;;;-5.30;54.20;;;;;;4948139;28;46513;-71
2023/12/03 04:14:19;;;;;;;13.85;7.32;;;-5.30;54.10;;;;;;4946888;28;46306;-71
2023/12/03 04:16:45;;;;;;;20.00;7.68;;;-5.30;54.20;;;;;;4948201;28;46706;-71
2023/12/03 04:19:13;;;;;;;10.90;5.60;;;-5.40;54.00;;;;;;4945638;28;46568;-71
2023/12/03 04:21:39;;;;;;;12.32;6.40;;;-5.30;54.10;;;;;;4949921;28;46143;-70
2023/12/03 04:24:05;;;;;;;11.63;6.80;;;-5.40;53.90;;;;;;4955274;28;46428;-71
2023/12/03 04:26:31;;;;;;;12.70;6.50;;;-5.40;54.10;;;;;;4948129;28;46971;-71
2023/12/03 04:28:56;;;;;;;14.30;7.70;;;-5.60;54.30;;;;;;4946793;28;46617;-72
2023/12/03 04:31:25;;;;;;;11.33;6.50;;;-5.70;54.70;;;;;;4948995;28;46682;-71
2023/12/03 04:33:55;;;;;;;11.88;6.65;;;-5.70;54.60;;;;;;4946892;28;45960;-70
2023/12/03 04:36:27;;;;;;;14.18;7.40;;;-5.70;54.30;;;;;;4945048;28;47024;-71
2023/12/03 04:38:56;;;;;;;12.57;6.95;;;-5.60;54.10;;;;;;4986500;22;46254;-73
2023/12/03 04:41:22;;;;;;;15.70;7.90;;;-5.60;53.80;;;;;;4979478;28;46466;-73
2023/12/03 04:43:48;;;;;;;11.48;7.18;;;-5.50;53.80;;;;;;4980882;28;46382;-73
2023/12/03 04:46:14;;;;;;;11.90;7.20;;;-5.70;53.90;;;;;;4958615;28;46773;-72
2023/12/03 04:48:40;;;;;;;10.93;5.35;;;-5.90;55.30;;;;;;4949066;28;46413;-72
2023/12/03 04:51:07;;;;;;;11.45;6.68;;;-6.00;55.60;;;;;;4949617;28;45793;-72
2023/12/03 04:53:32;;;;;;;9.82;6.03;;;-6.20;54.50;;;;;;4949405;28;46498;-72
2023/12/03 04:55:58;;;;;;;8.80;5.43;;;-6.40;55.00;;;;;;4949694;28;46473;-72
2023/12/03 04:58:25;;;;;;;9.87;5.70;;;-6.60;55.30;;;;;;4945049;28;46521;-72
2023/12/03 05:00:51;;;;;;;12.18;6.40;;;-6.70;55.60;;;;;;4947608;28;46489;-73
2023/12/03 05:03:16;;;;;;;10.83;5.93;;;-6.70;55.70;;;;;;4946184;28;46612;-73
2023/12/03 05:05:42;;;;;;;11.57;6.47;;;-6.70;55.50;;;;;;4947150;28;46524;-73
2023/12/03 05:08:07;;;;;;;12.47;6.00;;;-6.50;55.20;;;;;;4947198;28;46350;-73
2023/12/03 05:10:33;;;;;;;10.80;6.47;;;-6.40;54.90;;;;;;4947442;28;46536;-74
2023/12/03 05:12:59;;;;;;;9.07;5.87;;;-6.30;54.40;;;;;;4949720;28;46552;-73
2023/12/03 05:15:24;;;;;;;14.80;7.40;;;-6.20;54.20;;;;;;4947262;28;46522;-73
2023/12/03 05:17:50;;;;;;;13.03;7.13;;;-6.10;53.90;;;;;;4948951;28;46441;-73
2023/12/03 05:20:15;;;;;;;11.53;6.87;;;-5.90;53.70;;;;;;4945954;28;46628;-73
2023/12/03 05:22:41;;;;;;;12.67;7.10;;;-5.80;53.30;;;;;;4948870;28;46514;-73
2023/12/03 05:25:08;;;;;;;17.00;7.30;;;-5.60;52.90;;;;;;4950246;28;46463;-73
2023/12/03 05:27:33;;;;;;;13.10;7.47;;;-5.50;52.40;;;;;;4951538;28;46537;-73
2023/12/03 05:29:59;;;;;;;11.83;6.63;;;-5.40;52.30;;;;;;4950097;28;46417;-71
2023/12/03 05:32:24;;;;;;;11.23;7.10;;;-5.30;52.40;;;;;;4951327;28;46578;-73
2023/12/03 05:34:50;;;;;;;13.07;7.10;;;-5.30;52.40;;;;;;4950530;28;48085;-73
2023/12/03 05:37:15;;;;;;;12.57;7.03;;;-5.20;52.40;;;;;;4947941;28;46804;-74
2023/12/03 05:39:41;;;;;;;14.50;7.20;;;-5.20;52.40;;;;;;4950294;28;45846;-72
2023/12/03 05:42:07;;;;;;;10.53;5.97;;;-5.10;52.60;;;;;;4951520;28;46703;-73
2023/12/03 05:44:33;;;;;;;11.20;6.67;;;-5.20;52.70;;;;;;4950148;28;46142;-72
2023/12/03 05:46:59;;;;;;;12.70;6.80;;;-5.20;52.90;;;;;;4949138;28;46496;-73
2023/12/03 05:49:24;;;;;;;10.15;6.20;;;-5.20;52.90;;;;;;4951716;28;46423;-73
2023/12/03 05:51:50;;;;;;;11.30;6.57;;;-5.20;53.00;;;;;;4949663;28;45975;-72
2023/12/03 05:54:16;;;;;;;9.40;5.77;;;-5.30;53.30;;;;;;4950909;28;47232;-73
2023/12/03 05:56:43;;;;;;;11.70;6.40;;;-5.40;53.60;;;;;;4949658;28;46398;-71
2023/12/03 05:59:09;;;;;;;10.40;6.22;;;-5.70;53.80;;;;;;4964717;28;46384;-73
2023/12/03 06:01:35;;;;;;;9.20;5.33;;;-5.90;54.20;;;;;;4950438;28;46639;-73
2023/12/03 06:04:06;;;;;;;9.07;5.68;;;-6.00;55.40;;;;;;4949466;28;46887;-72
2023/12/03 06:06:35;;;;;;;9.70;5.72;;;-6.20;54.50;;;;;;4947483;28;46957;-71
2023/12/03 06:09:01;;;;;;;10.40;6.20;;;-6.20;54.70;;;;;;4947518;28;46342;-72
2023/12/03 06:11:27;;;;;;;12.05;6.10;;;-6.20;54.60;;;;;;4950220;28;46637;-74
2023/12/03 06:13:55;;;;;;;10.80;6.38;;;-6.20;54.40;;;;;;4950774;28;46005;-72
2023/12/03 06:16:21;;;;;;;11.85;6.45;;;-6.20;54.40;;;;;;4947679;28;46671;-73
2023/12/03 06:18:47;;;;;;;11.70;5.63;;;-6.20;54.40;;;;;;4951838;28;46417;-72
2023/12/03 06:21:12;;;;;;;8.23;5.13;;;-6.30;54.30;;;;;;4948689;28;46435;-72
2023/12/03 06:23:38;;;;;;;10.63;5.60;;;-6.30;54.30;;;;;;4950223;28;47034;-72
2023/12/03 06:26:04;;;;;;;12.90;6.73;;;-6.30;54.40;;;;;;4947911;28;46369;-72
2023/12/03 06:28:29;;;;;;;13.40;7.70;;;-6.20;54.30;;;;;;4950134;28;46402;-72
2023/12/03 06:30:55;;;;;;;14.10;8.10;;;-6.20;54.20;;;;;;4950210;28;46635;-72
2023/12/03 06:33:20;;;;;;;17.03;7.77;;;-6.20;54.10;;;;;;4951954;28;46409;-72
2023/12/03 06:35:46;;;;;;;14.83;8.33;;;-6.10;53.90;;;;;;4947227;28;46429;-73
2023/12/03 06:38:12;;;;;;;18.50;11.20;;;-6.00;53.70;;;;;;4945814;28;47117;-71
2023/12/03 06:40:38;;;;;;;16.97;8.80;;;-5.90;53.10;;;;;;4951236;28;46595;-73
2023/12/03 06:43:03;;;;;;;16.53;8.97;;;-5.80;53.30;;;;;;4950230;28;46484;-72
2023/12/03 06:45:29;;;;;;;16.07;8.80;;;-5.60;53.00;;;;;;4950483;28;46438;-73
2023/12/03 06:47:54;;;;;;;16.10;7.90;;;-5.50;52.20;;;;;;4957006;28;46470;-73
2023/12/03 06:50:20;;;;;;;13.77;7.43;;;-5.30;52.30;;;;;;4950280;28;46572;-73
2023/12/03 06:52:45;;;;;;;14.20;8.27;;;-5.10;51.90;;;;;;4952138;28;46374;-73
2023/12/03 06:55:12;;;;;;;14.73;7.07;;;-5.00;51.40;;;;;;4950792;28;45868;-73
2023/12/03 06:57:37;;;;;;;11.98;6.88;;;-4.90;51.20;;;;;;4949445;28;46730;-73
2023/12/03 07:00:06;;;;;;;10.40;6.63;;;-4.80;50.90;;;;;;4948400;28;46401;-73
2023/12/03 07:02:32;;;;;;;16.92;7.75;;;-4.70;50.70;;;;;;4950076;28;46496;-73
2023/12/03 07:04:57;;;;;;;15.37;8.10;;;-4.60;50.60;;;;;;4950460;28;46427;-73
2023/12/03 07:07:23;;;;;;;14.00;6.73;;;-4.60;50.50;;;;;;4951105;28;46405;-73
2023/12/03 07:09:48;;;;;;;15.30;7.20;;;-4.50;50.60;;;;;;4948683;28;46613;-73
2023/12/03 07:12:14;;;;;;;15.73;7.60;;;-4.50;50.50;;;;;;4947941;28;46497;-73
2023/12/03 07:14:39;;;;;;;15.40;7.70;;;-4.40;51.00;;;;;;4948839;28;46479;-73
2023/12/03 07:17:06;;;;;;;16.33;7.20;;;-4.60;51.00;;;;;;4948351;28;46469;-73
2023/12/03 07:19:32;;;;;;;14.32;7.35;;;-4.60;51.10;;;;;;4949986;28;46459;-73
2023/12/03 07:21:58;;;;;;;15.23;7.20;;;-4.70;51.10;;;;;;4948009;28;46525;-72
2023/12/03 07:24:23;;;;;;;49.43;21.87;;;-4.90;51.50;;;;;;4946719;28;46663;-72
2023/12/03 07:26:49;;;;;;;14.83;7.67;;;-5.10;52.20;;;;;;4949323;28;46473;-73
2023/12/03 07:29:17;;;;;;;23.40;10.40;;;-5.10;52.50;;;;;;4948667;28;46493;-73
2023/12/03 07:31:42;;;;;;;19.20;9.30;;;-5.00;52.00;;;;;;4947002;28;47132;-73
2023/12/03 07:34:08;;;;;;;15.00;7.90;;;-4.80;51.60;;;;;;4949719;28;46463;-73
2023/12/03 07:36:33;;;;;;;12.33;6.70;;;-4.70;51.30;;;;;;4946821;28;46752;-71
2023/12/03 07:38:59;;;;;;;13.50;7.40;;;-4.50;50.90;;;;;;4948366;28;46732;-74
2023/12/03 07:41:24;;;;;;;12.03;7.20;;;-4.50;50.80;;;;;;4948569;28;46484;-73
2023/12/03 07:43:51;;;;;;;11.83;7.07;;;-4.30;50.70;;;;;;4948996;28;46442;-73
2023/12/03 07:46:17;;;;;;;17.05;8.27;;;-4.10;50.20;;;;;;4947033;28;46380;-73
2023/12/03 07:48:43;;;;;;;11.32;6.72;;;-3.90;49.50;;;;;;4947301;28;46399;-73
2023/12/03 07:51:10;;;;;;;13.73;7.90;;;-3.70;49.00;;;;;;4946391;28;46981;-73
2023/12/03 07:53:35;;;;;;;11.93;6.88;;;-3.50;48.80;;;;;;4947196;28;46393;-73
2023/12/03 07:56:01;;;;;;;12.03;6.63;;;-3.40;48.50;;;;;;4946236;28;46843;-72
2023/12/03 07:58:27;;;;;;;12.30;7.10;;;-3.40;48.40;;;;;;4946932;28;46443;-73
2023/12/03 08:00:52;;;;;;;10.70;6.43;;;-3.50;48.30;;;;;;4944616;28;46394;-73
2023/12/03 08:03:18;;;;;;;12.17;6.73;;;-3.40;48.60;;;;;;4954728;28;46417;-73
2023/12/03 08:05:44;;;;;;;13.53;7.17;;;-3.40;49.80;;;;;;4946522;28;46695;-72
2023/12/03 08:08:09;;;;;;;13.53;7.23;;;-3.10;48.60;;;;;;4946765;28;45897;-73
2023/12/03 08:10:35;;;;;;;14.60;7.47;;;-3.10;48.30;;;;;;4949736;28;46501;-74
2023/12/03 08:13:00;;;;;;;11.27;7.00;;;-2.90;47.90;;;;;;4946769;28;46446;-74
2023/12/03 08:15:26;;;;;;;12.87;7.80;;;-2.80;47.40;;;;;;4948171;28;46396;-73
2023/12/03 08:17:52;;;;;;;14.20;7.70;;;-2.60;46.90;;;;;;4948711;28;46651;-72
2023/12/03 08:20:17;;;;;;;20.10;7.70;;;-2.50;46.30;;;;;;4948632;28;46807;-72
2023/12/03 08:22:43;;;;;;;17.77;9.97;;;-2.40;46.30;;;;;;4948257;28;46565;-73
2023/12/03 08:25:09;;;;;;;20.93;9.80;;;-2.40;46.00;;;;;;4948367;28;46429;-72
2023/12/03 08:27:34;;;;;;;16.30;8.97;;;-2.40;46.20;;;;;;4948393;28;46500;-73
2023/12/03 08:30:00;;;;;;;15.33;7.93;;;-2.20;46.10;;;;;;4941399;28;46805;-72
2023/12/03 08:32:25;;;;;;;12.13;7.07;;;-2.00;45.40;;;;;;4945502;28;46518;-73
2023/12/03 08:34:51;;;;;;;12.43;7.27;;;-1.70;44.90;;;;;;4943815;28;46590;-73
2023/12/03 08:37:16;;;;;;;13.90;7.63;;;-1.60;44.40;;;;;;4945308;28;45892;-73
2023/12/03 08:39:42;;;;;;;24.33;12.10;;;-1.40;44.00;;;;;;4942911;28;46423;-72
2023/12/03 08:42:08;;;;;;;21.00;9.33;;;-1.30;43.50;;;;;;4946221;28;45860;-74
2023/12/03 08:44:33;;;;;;;15.27;9.10;;;-1.10;43.10;;;;;;4947343;28;46549;-73
2023/12/03 08:46:59;;;;;;;24.37;11.73;;;-1.00;43.20;;;;;;4946673;28;46513;-73
2023/12/03 08:49:25;;;;;;;25.27;11.87;;;-0.90;43.30;;;;;;4946195;28;47667;-71
2023/12/03 08:51:51;;;;;;;17.27;9.80;;;-1.00;43.20;;;;;;4947305;28;46508;-73
2023/12/03 08:54:17;;;;;;;16.17;9.63;;;-1.10;43.10;;;;;;4948136;28;46747;-72
2023/12/03 08:56:43;;;;;;;16.90;10.03;;;-1.00;45.10;;;;;;4943774;28;46749;-73
2023/12/03 08:59:09;;;;;;;18.60;10.10;;;-1.00;44.30;;;;;;4949347;28;46483;-72
2023/12/03 09:01:34;;;;;;;20.70;11.07;;;-0.80;44.10;;;;;;4947604;28;46448;-73
2023/12/03 09:04:00;;;;;;;19.83;10.27;;;-0.50;43.70;;;;;;4947051;28;45841;-72
2023/12/03 09:06:25;;;;;;;18.67;9.63;;;-0.30;43.80;;;;;;4944962;28;46625;-73
2023/12/03 09:08:51;;;;;;;23.80;11.33;;;-0.10;43.90;;;;;;4947354;28;46441;-73
2023/12/03 09:11:17;;;;;;;23.27;11.07;;;-0.10;44.00;;;;;;4948310;28;46436;-73
2023/12/03 09:13:42;;;;;;;16.93;9.47;;;0.00;44.00;;;;;;4947240;28;46530;-73
2023/12/03 09:16:08;;;;;;;14.10;9.13;;;0.10;44.10;;;;;;4948950;28;46850;-72
2023/12/03 09:18:38;;;;;;;17.17;9.43;;;0.00;44.00;;;;;;4940725;28;47987;-72
2023/12/03 09:21:13;;;;;;;18.83;10.00;;;-0.10;44.40;;;;;;4943694;28;46586;-72
2023/12/03 09:23:39;;;;;;;19.50;11.20;;;-0.20;44.40;;;;;;4947108;28;46396;-73
2023/12/03 09:26:05;;;;;;;21.15;9.65;;;-0.20;45.20;;;;;;4945019;28;46604;-72
2023/12/03 09:28:32;;;;;;;30.52;17.92;;;-0.20;45.70;;;;;;4947268;28;46395;-72
2023/12/03 09:30:59;;;;;;;22.90;13.38;;;-0.20;45.80;;;;;;4944085;28;46382;-74
2023/12/03 09:33:26;;;;;;;19.08;11.07;;;-0.20;45.90;;;;;;4946589;28;45930;-73
2023/12/03 09:35:53;;;;;;;19.13;10.15;;;-0.20;46.10;;;;;;4945632;28;46811;-71
2023/12/03 09:38:18;;;;;;;15.38;9.07;;;-0.20;46.20;;;;;;4946372;28;46717;-73
2023/12/03 09:40:44;;;;;;;15.73;9.03;;;-0.10;46.10;;;;;;4947316;28;45888;-71
2023/12/03 09:43:12;;;;;;;13.75;8.35;;;-0.10;46.20;;;;;;4945717;28;45886;-73
2023/12/03 09:45:38;;;;;;;14.15;8.18;;;0.00;46.20;;;;;;4946930;28;46581;-72
2023/12/03 09:48:07;;;;;;;14.40;8.07;;;0.00;46.10;;;;;;4944862;28;47030;-73
2023/12/03 09:50:36;;;;;;;11.70;7.22;;;0.00;46.10;;;;;;4945342;28;46735;-73
2023/12/03 09:53:04;;;;;;;10.60;7.07;;;0.00;46.20;;;;;;4942705;28;45802;-72
2023/12/03 09:55:31;;;;;;;13.48;7.25;;;0.10;46.30;;;;;;4946951;28;46484;-72
2023/12/03 09:57:59;;;;;;;13.00;7.43;;;0.20;46.20;;;;;;4946371;28;46918;-69
2023/12/03 10:00:25;;;;;;;10.15;7.18;;;0.20;46.20;;;;;;4947782;28;46337;-69
2023/12/03 10:02:52;;;;;;;14.07;8.63;;;0.30;45.90;;;;;;4944747;28;46468;-72
2023/12/03 10:05:18;;;;;;;11.50;7.90;;;0.40;45.40;;;;;;4946906;28;46449;-69
2023/12/03 10:07:47;;;;;;;14.60;8.10;;;0.50;44.60;;;;;;4944986;28;46557;-70
2023/12/03 10:10:16;;;;;;;15.60;9.07;;;0.40;44.40;;;;;;4943055;28;46462;-71
2023/12/03 10:12:42;;;;;;;10.90;7.53;;;0.00;44.00;;;;;;4948497;28;46465;-70
2023/12/03 10:15:12;;;;;;;14.25;8.68;;;-0.30;43.80;;;;;;4949462;28;45915;-70
2023/12/03 10:17:38;;;;;;;15.15;9.60;;;-0.50;43.70;;;;;;4949386;28;46551;-70
2023/12/03 10:20:21;;;;;;;12.60;8.30;;;-0.60;43.50;;;;;;4948785;28;46421;-71
2023/12/03 10:22:51;;;;;;;16.30;8.65;;;-0.50;43.60;;;;;;4946447;28;46469;-71
2023/12/03 10:25:35;;;;;;;16.02;9.25;;;-0.50;43.60;;;;;;4945546;28;46354;-70
2023/12/03 10:28:03;;;;;;;17.48;9.10;;;-0.60;42.80;;;;;;4951996;28;46385;-71
2023/12/03 10:30:29;;;;;;;18.40;10.38;;;-0.70;42.80;;;;;;4948397;28;46282;-71
2023/12/03 10:32:55;;;;;;;29.83;15.50;;;-0.60;43.10;;;;;;4947871;28;46681;-71
2023/12/03 10:35:22;;;;;;;20.33;11.07;;;-0.50;42.90;;;;;;4948090;28;46470;-70
2023/12/03 10:37:48;;;;;;;17.38;9.02;;;-0.50;42.20;;;;;;4946565;28;46207;-70
2023/12/03 10:40:14;;;;;;;15.88;9.45;;;-0.40;42.50;;;;;;4947185;28;46346;-71
2023/12/03 10:42:40;;;;;;;16.67;9.10;;;-0.30;42.30;;;;;;4950718;28;46487;-70
2023/12/03 10:45:09;;;;;;;14.70;9.13;;;-0.20;42.00;;;;;;4950245;28;46593;-71
2023/12/03 10:47:36;;;;;;;15.23;9.23;;;-0.10;41.80;;;;;;4947940;28;46936;-71
2023/12/03 10:50:05;;;;;;;16.65;10.18;;;-0.20;41.40;;;;;;4948930;28;46508;-69
2023/12/03 10:52:31;;;;;;;14.88;8.60;;;-0.20;41.40;;;;;;4947861;28;46794;-70
2023/12/03 10:54:58;;;;;;;13.95;8.18;;;-0.20;41.10;;;;;;4950154;28;46818;-71
2023/12/03 10:57:30;;;;;;;12.48;8.18;;;-0.10;41.20;;;;;;4953631;28;46430;-72
2023/12/03 11:00:12;;;;;;;13.25;8.43;;;0.00;41.10;;;;;;4951822;28;46481;-73
2023/12/03 11:02:46;;;;;;;14.98;9.13;;;0.10;41.20;;;;;;4952626;28;46411;-71
2023/12/03 11:05:25;;;;;;;18.80;9.80;;;0.20;41.40;;;;;;4950710;28;46537;-70
2023/12/03 11:07:52;;;;;;;16.50;9.75;;;0.30;41.20;;;;;;4948174;28;46438;-70
2023/12/03 11:10:18;;;;;;;17.23;9.15;;;0.30;41.00;;;;;;4950461;28;46615;-70
2023/12/03 11:12:46;;;;;;;17.52;10.63;;;0.40;41.00;;;;;;4952552;28;46487;-70
2023/12/03 11:15:11;;;;;;;17.65;9.82;;;0.50;41.00;;;;;;4948004;28;46355;-70
2023/12/03 11:17:40;;;;;;;17.77;9.53;;;0.50;41.30;;;;;;4947471;28;47087;-70
2023/12/03 11:20:32;;;;;;;19.38;10.82;;;0.50;41.30;;;;;;4949570;28;46469;-71
2023/12/03 11:23:12;;;;;;;14.70;9.00;;;0.50;41.40;;;;;;4949082;28;46448;-69
2023/12/03 11:26:02;;;;;;;17.15;9.40;;;0.50;41.30;;;;;;4946578;28;46519;-71
2023/12/03 11:28:28;;;;;;;19.15;10.15;;;0.40;41.40;;;;;;4951744;28;46479;-69
2023/12/03 11:30:54;;;;;;;18.30;10.57;;;0.40;41.40;;;;;;4949349;28;46521;-71
2023/12/03 11:33:21;;;;;;;15.63;9.57;;;0.50;41.40;;;;;;4949129;28;45833;-70
2023/12/03 11:35:48;;;;;;;17.30;9.57;;;0.40;41.40;;;;;;4949465;28;45928;-70
2023/12/03 11:38:21;;;;;;;16.00;9.38;;;0.40;41.60;;;;;;4946849;28;47414;-70
2023/12/03 11:40:48;;;;;;;13.00;8.38;;;0.30;42.20;;;;;;4946293;28;46592;-70
2023/12/03 11:43:30;;;;;;;14.57;9.27;;;0.20;42.50;;;;;;4953383;28;46512;-71
2023/12/03 11:45:59;;;;;;;14.95;9.07;;;0.10;42.40;;;;;;4950959;28;46635;-71
2023/12/03 11:48:33;;;;;;;14.80;9.15;;;0.00;42.80;;;;;;4949233;28;47069;-69
2023/12/03 11:50:58;;;;;;;12.27;8.32;;;0.10;42.40;;;;;;4947797;28;46624;-71
2023/12/03 11:53:48;;;;;;;14.50;8.27;;;0.10;42.20;;;;;;4949857;28;46441;-71
2023/12/03 11:56:16;;;;;;;13.65;8.35;;;0.10;42.00;;;;;;4949537;28;46442;-70
2023/12/03 11:58:42;;;;;;;12.90;8.30;;;0.20;42.10;;;;;;4949198;28;46400;-69
2023/12/03 12:01:08;;;;;;;13.70;8.53;;;0.30;42.10;;;;;;4947533;28;46375;-71
2023/12/03 12:03:34;;;;;;;16.57;8.37;;;0.30;43.20;;;;;;4948963;28;46426;-71
2023/12/03 12:05:59;;;;;;;17.52;9.85;;;0.30;41.70;;;;;;4950393;28;46694;-71
2023/12/03 12:08:25;;;;;;;15.47;8.90;;;0.30;41.80;;;;;;4948968;28;46993;-70
2023/12/03 12:10:52;;;;;;;16.57;9.27;;;0.20;42.00;;;;;;4951199;28;46512;-71
2023/12/03 12:13:19;;;;;;;19.50;10.65;;;0.20;43.30;;;;;;4947901;28;46465;-71
2023/12/03 12:15:45;;;;;;;21.92;11.77;;;0.30;41.90;;;;;;4948776;28;46860;-70
2023/12/03 12:18:11;;;;;;;21.35;10.50;;;0.30;41.70;;;;;;4947602;28;46370;-70
2023/12/03 12:20:37;;;;;;;17.27;9.25;;;0.30;41.50;;;;;;4950255;28;46677;-70
2023/12/03 12:23:02;;;;;;;17.83;10.18;;;0.20;41.10;;;;;;4950262;28;46430;-70
2023/12/03 12:25:29;;;;;;;17.47;10.70;;;0.20;41.40;;;;;;4948666;28;46632;-68
2023/12/03 12:27:55;;;;;;;17.42;10.35;;;0.00;41.20;;;;;;4947396;28;46590;-68
2023/12/03 12:30:28;;;;;;;20.00;10.73;;;0.00;41.50;;;;;;4948662;28;46409;-70
2023/12/03 12:32:55;;;;;;;20.60;11.18;;;0.00;41.30;;;;;;4947069;28;46802;-70
2023/12/03 12:35:22;;;;;;;21.23;10.20;;;-0.10;41.60;;;;;;4937535;28;45912;-69